createdAt,value
2019-03-20T00:03:02.720Z,99.90
2019-03-20T00:06:06.180Z,99.90
2019-03-20T00:09:09.687Z,99.90
2019-03-20T00:12:13.149Z,99.90
2019-03-20T00:15:16.768Z,99.90
2019-03-20T00:18:20.216Z,99.90
2019-03-20T00:21:23.650Z,99.90
2019-03-20T00:24:27.100Z,99.90
2019-03-20T00:27:30.618Z,99.90
2019-03-20T00:30:34.074Z,99.90
2019-03-20T00:33:37.527Z,99.90
2019-03-20T00:36:40.955Z,99.90
2019-03-20T00:39:44.412Z,99.90
2019-03-20T00:42:48.029Z,99.90
2019-03-20T00:45:51.469Z,99.90
2019-03-20T00:48:54.924Z,99.90
2019-03-20T00:51:58.373Z,99.90
2019-03-20T00:55:01.829Z,99.90
2019-03-20T00:58:05.286Z,99.90
2019-03-20T01:01:08.714Z,99.90
2019-03-20T01:04:12.171Z,99.90
2019-03-20T01:07:15.614Z,99.90
2019-03-20T01:10:23.232Z,99.90
2019-03-20T01:13:26.687Z,99.90
2019-03-20T01:16:30.118Z,99.90
2019-03-20T01:19:33.576Z,99.90
2019-03-20T01:22:37.038Z,99.90
2019-03-20T01:25:40.488Z,99.90
2019-03-20T01:28:43.938Z,99.90
2019-03-20T01:31:47.364Z,99.90
2019-03-20T01:34:50.829Z,99.90
2019-03-20T01:37:54.266Z,99.90
2019-03-20T01:40:57.725Z,99.90
2019-03-20T01:44:01.176Z,99.90
2019-03-20T01:47:06.742Z,99.90
2019-03-20T01:50:09.815Z,99.90
2019-03-20T01:53:13.269Z,99.90
2019-03-20T01:56:16.793Z,99.90
2019-03-20T01:59:20.224Z,99.90
2019-03-20T02:02:23.669Z,99.90
2019-03-20T02:05:35.359Z,99.90
2019-03-20T02:08:32.266Z,99.90
2019-03-20T02:11:35.711Z,99.90
2019-03-20T02:14:39.160Z,99.90
2019-03-20T02:17:42.613Z,99.90
2019-03-20T02:20:46.050Z,99.90
2019-03-20T02:23:49.513Z,99.90
2019-03-20T02:26:52.965Z,99.90
2019-03-20T02:29:56.420Z,99.90
2019-03-20T02:32:59.877Z,99.90
2019-03-20T02:36:03.302Z,99.90
2019-03-20T02:39:07.402Z,99.90
2019-03-20T02:42:10.905Z,99.90
2019-03-20T02:45:15.372Z,99.90
2019-03-20T02:48:18.910Z,99.90
2019-03-20T02:51:22.370Z,99.90
2019-03-20T02:54:25.820Z,99.90
2019-03-20T02:57:29.277Z,99.90
2019-03-20T03:00:39.552Z,99.90
2019-03-20T03:03:43.102Z,99.90
2019-03-20T03:06:46.631Z,99.90
2019-03-20T03:09:50.098Z,99.90
2019-03-20T03:12:53.550Z,99.90
2019-03-20T03:15:57.007Z,99.90
2019-03-20T03:19:00.452Z,99.90
2019-03-20T03:22:03.947Z,99.90
2019-03-20T03:25:08.884Z,99.90
2019-03-20T03:28:12.340Z,99.90
2019-03-20T03:31:15.768Z,99.90
2019-03-20T03:34:19.233Z,99.90
2019-03-20T03:37:22.709Z,99.90
2019-03-20T03:40:26.181Z,99.90
2019-03-20T03:43:29.639Z,99.90
2019-03-20T03:46:33.162Z,99.90
2019-03-20T03:49:36.617Z,99.90
2019-03-20T03:52:40.133Z,99.90
2019-03-20T03:55:43.689Z,99.90
2019-03-20T03:58:47.133Z,99.90
2019-03-20T04:01:50.695Z,99.90
2019-03-20T04:04:54.195Z,99.90
2019-03-20T04:07:57.660Z,99.90
2019-03-20T04:11:01.185Z,99.90
2019-03-20T04:14:04.689Z,99.90
2019-03-20T04:17:22.479Z,99.90
2019-03-20T04:20:25.936Z,99.90
2019-03-20T04:23:29.450Z,99.90
2019-03-20T04:26:32.908Z,99.90
2019-03-20T04:29:36.362Z,99.90
2019-03-20T04:32:39.809Z,99.90
2019-03-20T04:35:43.267Z,99.90
2019-03-20T04:38:48.389Z,99.90
2019-03-20T04:41:51.831Z,99.90
2019-03-20T04:44:55.304Z,99.90
2019-03-20T04:47:58.734Z,99.90
2019-03-20T04:51:02.186Z,99.90
2019-03-20T04:54:05.637Z,99.90
2019-03-20T04:57:09.197Z,99.90
2019-03-20T05:00:23.666Z,99.90
2019-03-20T05:03:27.113Z,99.90
2019-03-20T05:06:30.599Z,99.90
2019-03-20T05:09:34.107Z,99.90
2019-03-20T05:12:37.559Z,99.90
2019-03-20T05:15:41.023Z,99.90
2019-03-20T05:18:44.457Z,99.90
2019-03-20T05:21:47.905Z,99.90
2019-03-20T05:24:51.340Z,99.90
2019-03-20T05:27:54.809Z,99.90
2019-03-20T05:30:58.548Z,99.90
2019-03-20T05:34:02.000Z,99.90
2019-03-20T05:37:10.243Z,99.90
2019-03-20T05:40:15.342Z,99.90
2019-03-20T05:43:18.801Z,99.90
2019-03-20T05:46:22.277Z,99.90
2019-03-20T05:49:25.732Z,99.90
2019-03-20T05:52:29.191Z,99.90
2019-03-20T05:55:32.653Z,99.90
2019-03-20T05:58:36.106Z,99.90
2019-03-20T06:01:39.557Z,99.90
2019-03-20T06:04:43.013Z,99.90
2019-03-20T06:07:46.489Z,99.90
2019-03-20T06:10:49.929Z,99.90
2019-03-20T06:13:53.386Z,99.90
2019-03-20T06:16:56.841Z,99.90
2019-03-20T06:20:00.421Z,99.90
2019-03-20T06:23:04.062Z,99.90
2019-03-20T06:26:07.920Z,99.90
2019-03-20T06:29:11.448Z,99.80
2019-03-20T06:32:14.905Z,99.90
2019-03-20T06:35:18.354Z,99.90
2019-03-20T06:38:21.840Z,97.90
2019-03-20T06:41:25.346Z,96.50
2019-03-20T06:44:28.817Z,92.20
2019-03-20T06:47:32.258Z,86.40
2019-03-20T06:50:35.746Z,76.10
2019-03-20T06:53:39.178Z,67.90
2019-03-20T06:56:42.638Z,64.00
2019-03-20T07:00:22.504Z,61.10
2019-03-20T07:03:37.931Z,57.60
2019-03-20T07:06:55.930Z,55.30
2019-03-20T07:10:11.226Z,55.20
2019-03-20T07:13:14.704Z,53.10
2019-03-20T07:16:18.165Z,51.40
2019-03-20T07:19:21.639Z,49.30
2019-03-20T07:22:25.079Z,48.20
2019-03-20T07:25:28.551Z,47.40
2019-03-20T07:28:32.013Z,47.00
2019-03-20T07:31:35.479Z,46.50
2019-03-20T07:34:38.922Z,45.90
2019-03-20T07:37:42.394Z,45.80
2019-03-20T07:40:45.830Z,45.40
2019-03-20T07:43:49.305Z,46.20
2019-03-20T07:46:52.737Z,44.80
2019-03-20T07:49:56.265Z,45.20
2019-03-20T07:52:59.746Z,45.90
2019-03-20T07:56:03.192Z,44.50
2019-03-20T07:59:06.690Z,45.00
2019-03-20T08:02:10.138Z,45.90
2019-03-20T08:05:13.647Z,45.30
2019-03-20T08:08:17.127Z,45.30
2019-03-20T08:11:20.594Z,44.60
2019-03-20T08:14:24.057Z,44.50
2019-03-20T08:17:27.529Z,44.50
2019-03-20T08:20:31.434Z,44.80
2019-03-20T08:23:34.926Z,45.10
2019-03-20T08:26:38.381Z,45.60
2019-03-20T08:29:41.851Z,44.70
2019-03-20T08:32:51.450Z,44.90
2019-03-20T08:35:54.883Z,45.10
2019-03-20T08:38:58.350Z,46.10
2019-03-20T08:42:01.785Z,45.90
2019-03-20T08:45:08.617Z,46.20
2019-03-20T08:48:12.058Z,46.20
2019-03-20T08:51:15.529Z,47.70
2019-03-20T08:54:18.970Z,47.40
2019-03-20T08:57:22.446Z,47.00
2019-03-20T09:00:25.895Z,46.80
2019-03-20T09:03:29.369Z,47.50
2019-03-20T09:06:32.805Z,48.80
2019-03-20T09:09:36.305Z,49.30
2019-03-20T09:12:39.741Z,50.20
2019-03-20T09:15:43.218Z,50.70
2019-03-20T09:18:46.662Z,52.30
2019-03-20T09:21:50.121Z,53.40
2019-03-20T09:24:53.600Z,54.80
2019-03-20T09:27:57.042Z,56.50
2019-03-20T09:31:00.534Z,56.80
2019-03-20T09:34:04.318Z,59.40
2019-03-20T09:37:07.987Z,61.30
2019-03-20T09:40:13.803Z,63.10
2019-03-20T09:43:17.252Z,67.10
2019-03-20T09:46:20.735Z,71.30
2019-03-20T09:49:24.174Z,72.80
2019-03-20T09:52:27.673Z,78.30
2019-03-20T09:55:31.113Z,84.20
2019-03-20T09:58:34.582Z,85.00
2019-03-20T10:01:38.022Z,87.40
2019-03-20T10:04:41.492Z,88.90
